createdAt,value
2019-03-23T00:00:16.052Z,9.40
2019-03-23T00:02:44.812Z,9.40
2019-03-23T00:05:14.944Z,9.40
2019-03-23T00:07:44.247Z,9.50
2019-03-23T00:10:12.764Z,9.50
2019-03-23T00:12:41.500Z,9.50
2019-03-23T00:15:12.323Z,9.50
2019-03-23T00:17:40.842Z,9.50
2019-03-23T00:20:09.885Z,9.50
2019-03-23T00:22:38.451Z,9.50
2019-03-23T00:25:07.337Z,9.50
2019-03-23T00:27:36.803Z,9.50
2019-03-23T00:30:08.882Z,9.60
2019-03-23T00:32:38.616Z,9.60
2019-03-23T00:35:07.434Z,9.80
2019-03-23T00:37:36.065Z,9.90
2019-03-23T00:40:07.701Z,9.90
2019-03-23T00:42:36.960Z,9.90
2019-03-23T00:45:07.696Z,9.90
2019-03-23T00:47:36.439Z,9.90
2019-03-23T00:50:06.116Z,9.90
2019-03-23T00:52:34.604Z,10.00
2019-03-23T00:55:05.196Z,10.00
2019-03-23T00:57:33.443Z,10.00
2019-03-23T01:00:02.605Z,9.90
2019-03-23T01:02:31.347Z,9.80
2019-03-23T01:05:02.613Z,9.90
2019-03-23T01:07:31.444Z,9.90
2019-03-23T01:10:00.720Z,9.90
2019-03-23T01:12:29.599Z,9.90
2019-03-23T01:14:59.835Z,9.90
2019-03-23T01:17:28.452Z,10.00
2019-03-23T01:19:57.801Z,9.90
2019-03-23T01:22:26.596Z,9.80
2019-03-23T01:24:55.381Z,9.80
2019-03-23T01:27:24.119Z,9.90
2019-03-23T01:29:53.513Z,10.00
2019-03-23T01:32:22.113Z,10.10
2019-03-23T01:34:50.959Z,10.20
2019-03-23T01:37:21.461Z,10.30
2019-03-23T01:39:50.089Z,10.30
2019-03-23T01:42:18.837Z,10.30
2019-03-23T01:44:47.303Z,10.30
2019-03-23T01:47:15.791Z,10.40
2019-03-23T01:49:46.050Z,10.40
2019-03-23T01:52:14.805Z,10.30
2019-03-23T01:54:43.589Z,10.30
2019-03-23T01:57:12.362Z,10.30
2019-03-23T01:59:41.919Z,10.30
2019-03-23T02:02:10.776Z,10.30
2019-03-23T02:04:39.665Z,10.10
2019-03-23T02:07:16.117Z,10.10
2019-03-23T02:09:44.873Z,10.10
2019-03-23T02:12:14.277Z,10.00
2019-03-23T02:14:42.803Z,10.00
2019-03-23T02:17:11.550Z,10.10
2019-03-23T02:19:41.797Z,10.10
2019-03-23T02:22:10.293Z,10.10
2019-03-23T02:24:39.096Z,10.10
2019-03-23T02:27:07.844Z,10.10
2019-03-23T02:29:36.607Z,10.10
2019-03-23T02:32:05.431Z,10.10
2019-03-23T02:34:34.206Z,10.10
2019-03-23T02:37:03.156Z,10.10
2019-03-23T02:39:31.939Z,10.10
2019-03-23T02:42:02.324Z,10.10
2019-03-23T02:44:31.215Z,10.10
2019-03-23T02:47:02.543Z,10.10
2019-03-23T02:49:31.052Z,10.10
2019-03-23T02:51:59.878Z,10.10
2019-03-23T02:54:30.055Z,10.10
2019-03-23T02:57:00.085Z,10.20
2019-03-23T02:59:28.701Z,10.10
2019-03-23T03:01:59.245Z,10.00
2019-03-23T03:04:28.065Z,9.80
2019-03-23T03:06:57.919Z,9.80
2019-03-23T03:09:26.688Z,9.80
2019-03-23T03:11:55.473Z,9.80
2019-03-23T03:14:23.940Z,9.80
2019-03-23T03:16:55.028Z,9.80
2019-03-23T03:19:25.061Z,9.70
2019-03-23T03:21:53.864Z,9.70
2019-03-23T03:24:22.584Z,9.70
2019-03-23T03:26:51.177Z,9.70
2019-03-23T03:29:19.631Z,9.80
2019-03-23T03:31:48.199Z,9.70
2019-03-23T03:34:17.137Z,9.70
2019-03-23T03:36:45.702Z,9.70
2019-03-23T03:39:14.576Z,9.60
2019-03-23T03:41:43.752Z,9.60
2019-03-23T03:44:15.345Z,9.60
2019-03-23T03:46:43.952Z,9.60
2019-03-23T03:49:13.180Z,9.60
2019-03-23T03:51:42.073Z,9.60
2019-03-23T03:54:10.920Z,9.60
2019-03-23T03:56:39.377Z,9.60
2019-03-23T03:59:08.146Z,9.70
2019-03-23T04:01:36.811Z,9.70
2019-03-23T04:04:05.589Z,9.80
2019-03-23T04:06:34.048Z,9.80
2019-03-23T04:09:05.298Z,9.80
2019-03-23T04:11:33.749Z,9.70
2019-03-23T04:14:02.509Z,9.80
2019-03-23T04:16:31.397Z,9.80
2019-03-23T04:18:59.892Z,9.80
2019-03-23T04:21:28.633Z,9.80
2019-03-23T04:23:59.002Z,9.70
2019-03-23T04:26:30.564Z,9.70
2019-03-23T04:29:00.211Z,9.70
2019-03-23T04:31:29.891Z,9.70
2019-03-23T04:33:58.438Z,9.70
2019-03-23T04:36:26.965Z,9.70
2019-03-23T04:38:56.361Z,9.80
2019-03-23T04:41:24.932Z,9.70
2019-03-23T04:43:53.510Z,9.70
2019-03-23T04:46:22.037Z,9.70
2019-03-23T04:48:50.507Z,9.70
2019-03-23T04:51:22.796Z,9.70
2019-03-23T04:53:51.585Z,9.70
2019-03-23T04:56:20.372Z,9.70
2019-03-23T04:58:48.886Z,9.70
2019-03-23T05:01:17.726Z,9.70
2019-03-23T05:03:46.537Z,9.60
2019-03-23T05:06:16.741Z,9.60
2019-03-23T05:08:45.519Z,9.50
2019-03-23T05:11:14.345Z,9.50
2019-03-23T05:13:44.053Z,9.50
2019-03-23T05:16:12.807Z,9.40
2019-03-23T05:18:41.647Z,9.50
2019-03-23T05:21:10.825Z,9.40
2019-03-23T05:23:40.605Z,9.50
2019-03-23T05:26:11.378Z,9.50
2019-03-23T05:28:40.006Z,9.50
2019-03-23T05:31:08.493Z,9.60
2019-03-23T05:33:37.035Z,9.60
2019-03-23T05:36:05.843Z,9.70
2019-03-23T05:38:43.796Z,9.70
2019-03-23T05:41:04.983Z,9.70
2019-03-23T05:43:33.837Z,9.70
2019-03-23T05:46:02.886Z,9.70
2019-03-23T05:48:31.468Z,9.80
2019-03-23T05:51:01.473Z,9.80
2019-03-23T05:53:31.323Z,9.80
2019-03-23T05:56:00.111Z,9.80
2019-03-23T05:58:28.655Z,9.80
2019-03-23T06:00:57.383Z,9.80
2019-03-23T06:03:26.141Z,9.80
2019-03-23T06:05:54.937Z,9.80
2019-03-23T06:08:25.899Z,9.80
2019-03-23T06:10:58.024Z,9.80
2019-03-23T06:13:26.811Z,9.80
2019-03-23T06:15:56.345Z,9.80
2019-03-23T06:18:24.875Z,9.90
2019-03-23T06:20:53.512Z,9.90
2019-03-23T06:23:22.395Z,10.00
2019-03-23T06:25:51.378Z,9.90
2019-03-23T06:28:22.365Z,9.90
2019-03-23T06:30:50.869Z,9.80
2019-03-23T06:33:21.691Z,9.90
2019-03-23T06:35:51.183Z,9.80
2019-03-23T06:38:21.549Z,9.80
2019-03-23T06:40:50.441Z,9.90
2019-03-23T06:43:19.174Z,9.90
2019-03-23T06:45:47.718Z,9.90
2019-03-23T06:48:16.438Z,9.90
2019-03-23T06:50:45.185Z,10.00
2019-03-23T06:53:13.937Z,9.90
2019-03-23T06:55:42.393Z,10.00
2019-03-23T06:58:10.841Z,9.90
2019-03-23T07:00:39.563Z,10.00
2019-03-23T07:03:08.019Z,10.10
2019-03-23T07:05:36.467Z,10.10
2019-03-23T07:08:04.999Z,10.10
2019-03-23T07:10:33.723Z,10.10
2019-03-23T07:13:02.655Z,10.10
2019-03-23T07:15:32.763Z,10.10
2019-03-23T07:18:03.051Z,10.10
2019-03-23T07:20:34.584Z,10.10
2019-03-23T07:23:03.419Z,10.10
2019-03-23T07:25:31.948Z,10.10
2019-03-23T07:28:03.246Z,10.10
2019-03-23T07:30:33.301Z,10.00
2019-03-23T07:33:01.794Z,10.00
2019-03-23T07:35:30.326Z,10.10
2019-03-23T07:37:59.247Z,10.10
2019-03-23T07:40:28.005Z,10.10
2019-03-23T07:42:58.911Z,10.20
2019-03-23T07:45:27.691Z,10.20
2019-03-23T07:47:56.401Z,10.20
2019-03-23T07:50:24.864Z,10.20
2019-03-23T07:52:53.351Z,10.30
2019-03-23T07:55:23.347Z,10.30
2019-03-23T07:57:52.102Z,10.30
2019-03-23T08:00:21.774Z,10.40
2019-03-23T08:02:50.291Z,10.40
2019-03-23T08:05:18.820Z,10.50
2019-03-23T08:07:47.341Z,10.50
2019-03-23T08:10:30.653Z,10.50
2019-03-23T08:12:59.639Z,10.60
2019-03-23T08:15:28.594Z,10.60
2019-03-23T08:17:58.709Z,10.60
2019-03-23T08:20:27.445Z,10.60
2019-03-23T08:22:56.168Z,10.60
2019-03-23T08:25:24.705Z,10.50
2019-03-23T08:27:55.898Z,10.50
2019-03-23T08:30:24.740Z,10.60
2019-03-23T08:32:53.238Z,10.60
2019-03-23T08:35:21.711Z,10.70
2019-03-23T08:37:50.457Z,10.70
2019-03-23T08:40:21.835Z,10.70
2019-03-23T08:42:50.594Z,10.80
2019-03-23T08:45:19.299Z,10.80
2019-03-23T08:47:48.034Z,10.90
2019-03-23T08:50:16.764Z,10.90
2019-03-23T08:52:45.248Z,11.00
2019-03-23T08:55:13.711Z,10.90
2019-03-23T08:57:42.280Z,10.90
2019-03-23T09:00:11.332Z,10.90
2019-03-23T09:02:40.588Z,11.00
2019-03-23T09:05:09.157Z,11.00
2019-03-23T09:07:37.961Z,11.00
2019-03-23T09:10:07.587Z,11.00
2019-03-23T09:12:36.545Z,11.10
2019-03-23T09:15:11.076Z,11.20
2019-03-23T09:17:39.798Z,11.20
2019-03-23T09:20:10.368Z,11.30
2019-03-23T09:22:38.833Z,11.30
2019-03-23T09:25:07.632Z,11.30
2019-03-23T09:27:37.872Z,11.30
2019-03-23T09:30:11.992Z,11.30
2019-03-23T09:32:40.684Z,11.30
2019-03-23T09:35:09.389Z,11.30
2019-03-23T09:37:38.494Z,11.30
2019-03-23T09:40:10.946Z,11.40
2019-03-23T09:42:41.258Z,11.40
2019-03-23T09:45:10.119Z,11.50
2019-03-23T09:47:40.369Z,11.50
2019-03-23T09:50:13.651Z,11.50
2019-03-23T09:52:43.685Z,11.50
2019-03-23T09:55:12.447Z,11.60
2019-03-23T09:57:40.912Z,11.60
2019-03-23T10:00:12.226Z,11.70
2019-03-23T10:02:41.909Z,11.70
2019-03-23T10:05:10.785Z,11.80
2019-03-23T10:07:39.535Z,11.70
2019-03-23T10:10:20.951Z,11.70
2019-03-23T10:12:41.366Z,11.70
2019-03-23T10:15:10.417Z,11.70
2019-03-23T10:17:39.315Z,11.70
2019-03-23T10:20:09.865Z,11.70
2019-03-23T10:22:39.345Z,11.70
2019-03-23T10:25:08.229Z,11.70
2019-03-23T10:27:36.945Z,11.80
2019-03-23T10:30:07.739Z,11.80
2019-03-23T10:32:37.759Z,11.90
2019-03-23T10:35:08.637Z,11.90
2019-03-23T10:37:37.670Z,11.90
2019-03-23T10:40:10.923Z,12.00
2019-03-23T10:42:39.697Z,12.00
2019-03-23T10:45:09.605Z,12.20
2019-03-23T10:47:38.480Z,12.20
2019-03-23T10:50:07.677Z,12.30
2019-03-23T10:52:36.175Z,12.40
2019-03-23T10:55:06.599Z,12.50
2019-03-23T10:57:35.354Z,12.50
2019-03-23T11:00:10.413Z,12.50
2019-03-23T11:02:40.235Z,12.60
2019-03-23T11:05:09.721Z,12.60
2019-03-23T11:07:38.337Z,12.70
2019-03-23T11:10:09.671Z,12.80
2019-03-23T11:12:38.575Z,12.80
2019-03-23T11:15:09.243Z,12.80
2019-03-23T11:17:38.079Z,12.80
2019-03-23T11:20:10.839Z,12.70
2019-03-23T11:22:39.622Z,12.80
2019-03-23T11:25:09.163Z,12.80
2019-03-23T11:27:38.050Z,12.90
2019-03-23T11:30:11.624Z,13.00
2019-03-23T11:32:40.405Z,13.10
2019-03-23T11:35:09.405Z,13.20
2019-03-23T11:37:38.532Z,13.20
2019-03-23T11:40:14.322Z,13.20
2019-03-23T11:42:49.755Z,13.20
2019-03-23T11:45:13.880Z,13.30
2019-03-23T11:47:43.773Z,13.40
2019-03-23T11:50:12.822Z,13.50
2019-03-23T11:52:41.636Z,13.60
2019-03-23T11:55:10.691Z,13.60
2019-03-23T11:57:39.252Z,13.60
2019-03-23T12:00:13.690Z,13.60
2019-03-23T12:02:45.186Z,13.60
2019-03-23T12:05:14.928Z,13.70
2019-03-23T12:07:43.750Z,13.80
2019-03-23T12:10:13.544Z,13.80
2019-03-23T12:12:44.455Z,13.90
2019-03-23T12:15:14.077Z,13.90
2019-03-23T12:17:43.472Z,14.00
2019-03-23T12:20:13.735Z,14.00
2019-03-23T12:22:44.125Z,14.00
2019-03-23T12:25:13.746Z,14.00
2019-03-23T12:27:45.378Z,14.10
2019-03-23T12:30:16.845Z,14.10
2019-03-23T12:32:45.711Z,14.20
2019-03-23T12:35:14.274Z,14.20
2019-03-23T12:37:43.085Z,14.30
2019-03-23T12:40:12.158Z,14.30
2019-03-23T12:42:40.998Z,14.30
2019-03-23T12:45:11.679Z,14.30
2019-03-23T12:47:40.619Z,14.40
2019-03-23T12:50:10.727Z,14.50
2019-03-23T12:52:39.605Z,14.60
2019-03-23T12:55:08.441Z,14.50
2019-03-23T12:57:36.992Z,14.50
2019-03-23T13:00:14.585Z,14.50
2019-03-23T13:02:43.115Z,14.60
2019-03-23T13:05:13.496Z,14.70
2019-03-23T13:07:41.970Z,14.80
2019-03-23T13:10:12.503Z,14.80
2019-03-23T13:12:41.400Z,14.70
2019-03-23T13:15:12.571Z,14.70
2019-03-23T13:17:41.309Z,14.80
2019-03-23T13:20:11.403Z,14.80
2019-03-23T13:22:40.235Z,14.90
2019-03-23T13:25:09.518Z,14.90
2019-03-23T13:27:37.969Z,15.10
2019-03-23T13:30:13.022Z,15.10
2019-03-23T13:32:41.822Z,15.10
2019-03-23T13:35:13.398Z,15.10
2019-03-23T13:37:41.947Z,15.10
2019-03-23T13:40:11.972Z,15.00
2019-03-23T13:42:40.842Z,14.90
2019-03-23T13:45:10.405Z,14.90
2019-03-23T13:47:40.128Z,14.90
2019-03-23T13:50:09.980Z,14.90
2019-03-23T13:52:38.523Z,14.90
2019-03-23T13:55:07.766Z,14.80
2019-03-23T13:57:36.300Z,14.80
2019-03-23T14:00:08.368Z,14.70
2019-03-23T14:02:37.218Z,14.60
2019-03-23T14:05:12.223Z,14.50
2019-03-23T14:07:37.824Z,14.40
2019-03-23T14:10:07.037Z,14.40
2019-03-23T14:12:35.904Z,14.30
2019-03-23T14:15:07.180Z,14.30
2019-03-23T14:17:36.024Z,14.20
2019-03-23T14:20:06.145Z,14.10
2019-03-23T14:22:34.869Z,14.10
2019-03-23T14:25:06.355Z,14.10
2019-03-23T14:27:35.105Z,14.10
2019-03-23T14:30:05.983Z,14.10
2019-03-23T14:32:34.918Z,14.10
2019-03-23T14:35:03.901Z,14.00
2019-03-23T14:37:33.921Z,14.10
2019-03-23T14:40:02.464Z,14.10
2019-03-23T14:42:31.122Z,14.10
2019-03-23T14:44:59.982Z,14.10
2019-03-23T14:47:28.573Z,14.10
2019-03-23T14:49:57.281Z,14.10
2019-03-23T14:52:25.999Z,14.10
2019-03-23T14:54:54.828Z,14.10
2019-03-23T14:57:23.546Z,14.10
2019-03-23T14:59:52.021Z,14.10
2019-03-23T15:02:20.663Z,14.20
2019-03-23T15:04:49.382Z,14.10
2019-03-23T15:07:18.156Z,14.10
2019-03-23T15:09:47.353Z,14.00
2019-03-23T15:12:15.814Z,13.90
2019-03-23T15:14:44.421Z,13.80
2019-03-23T15:17:12.902Z,13.80
2019-03-23T15:19:43.896Z,13.70
2019-03-23T15:22:12.705Z,13.60
2019-03-23T15:24:42.535Z,13.50
2019-03-23T15:27:11.260Z,13.50
2019-03-23T15:29:40.099Z,13.40
2019-03-23T15:32:08.564Z,13.40
2019-03-23T15:34:37.011Z,13.30
2019-03-23T15:37:05.634Z,13.30
2019-03-23T15:39:35.687Z,13.10
2019-03-23T15:42:05.695Z,13.00
2019-03-23T15:44:34.184Z,12.80
2019-03-23T15:47:03.685Z,12.70
2019-03-23T15:49:32.188Z,12.60
2019-03-23T15:52:02.565Z,12.40
2019-03-23T15:54:31.025Z,12.30
2019-03-23T15:56:59.829Z,12.30
2019-03-23T15:59:28.630Z,12.20
2019-03-23T16:01:58.785Z,12.20
2019-03-23T16:04:27.282Z,12.10
2019-03-23T16:06:57.896Z,12.10
2019-03-23T16:09:26.353Z,12.00
2019-03-23T16:11:55.129Z,12.00
2019-03-23T16:14:23.911Z,11.90
2019-03-23T16:16:54.688Z,11.90
2019-03-23T16:19:23.195Z,11.90
2019-03-23T16:21:52.055Z,11.90
2019-03-23T16:24:20.888Z,11.90
2019-03-23T16:26:49.770Z,11.90
2019-03-23T16:29:18.281Z,11.90
2019-03-23T16:31:46.740Z,11.90
2019-03-23T16:34:15.648Z,11.90
2019-03-23T16:36:46.900Z,11.90
2019-03-23T16:39:15.619Z,11.90
2019-03-23T16:41:44.482Z,11.90
2019-03-23T16:44:20.845Z,12.00
2019-03-23T16:46:49.426Z,12.00
2019-03-23T16:49:17.890Z,11.90
2019-03-23T16:51:46.349Z,12.00
2019-03-23T16:54:17.814Z,12.00
2019-03-23T16:57:28.700Z,12.00
2019-03-23T16:59:57.506Z,12.00
2019-03-23T17:02:26.437Z,12.10
2019-03-23T17:04:55.737Z,12.00
2019-03-23T17:07:25.714Z,12.00
2019-03-23T17:09:54.552Z,12.00
2019-03-23T17:12:24.558Z,12.00
2019-03-23T17:14:53.107Z,12.10
2019-03-23T17:17:21.954Z,12.00
2019-03-23T17:19:50.718Z,12.00
2019-03-23T17:22:19.193Z,11.90
2019-03-23T17:24:47.644Z,11.80
2019-03-23T17:27:16.363Z,11.80
2019-03-23T17:29:45.088Z,11.70
2019-03-23T17:32:14.678Z,11.70
2019-03-23T17:34:43.155Z,11.60
2019-03-23T17:37:16.420Z,11.50
2019-03-23T17:39:45.236Z,11.50
2019-03-23T17:42:13.728Z,11.50
2019-03-23T17:44:46.162Z,11.50
2019-03-23T17:47:15.004Z,11.50
2019-03-23T17:49:43.821Z,11.50
2019-03-23T17:52:13.708Z,11.50
2019-03-23T17:54:42.242Z,11.50
2019-03-23T17:57:10.720Z,11.50
2019-03-23T17:59:39.455Z,11.50
2019-03-23T18:02:07.987Z,11.40
2019-03-23T18:04:36.824Z,11.40
2019-03-23T18:07:05.619Z,11.40
2019-03-23T18:09:34.371Z,11.30
2019-03-23T18:12:03.106Z,11.30
2019-03-23T18:14:31.913Z,11.30
2019-03-23T18:17:00.384Z,11.30
2019-03-23T18:19:30.632Z,11.30
2019-03-23T18:22:00.368Z,11.30
2019-03-23T18:24:29.089Z,11.30
2019-03-23T18:26:57.583Z,11.30
2019-03-23T18:29:27.560Z,11.30
2019-03-23T18:31:56.022Z,11.30
2019-03-23T18:34:24.889Z,11.20
2019-03-23T18:36:55.585Z,11.20
2019-03-23T18:39:24.106Z,11.20
2019-03-23T18:41:55.739Z,11.20
2019-03-23T18:44:24.789Z,11.10
2019-03-23T18:46:58.132Z,11.10
2019-03-23T18:49:26.622Z,11.00
2019-03-23T18:51:56.851Z,11.00
2019-03-23T18:54:25.697Z,11.00
2019-03-23T18:56:54.425Z,11.00
2019-03-23T18:59:27.232Z,10.90
2019-03-23T19:01:55.944Z,10.90
2019-03-23T19:04:25.875Z,10.90
2019-03-23T19:06:54.353Z,10.90
2019-03-23T19:09:22.905Z,10.80
2019-03-23T19:11:51.459Z,10.80
2019-03-23T19:14:19.908Z,10.80
2019-03-23T19:16:48.378Z,10.80
2019-03-23T19:19:19.191Z,10.80
2019-03-23T19:21:50.759Z,10.80
2019-03-23T19:24:19.514Z,10.80
2019-03-23T19:26:47.969Z,10.80
2019-03-23T19:29:17.531Z,10.80
2019-03-23T19:31:48.105Z,10.80
2019-03-23T19:34:16.596Z,10.80
2019-03-23T19:36:45.371Z,10.80
2019-03-23T19:39:14.160Z,10.90
2019-03-23T19:41:42.615Z,10.90
2019-03-23T19:44:13.481Z,10.80
2019-03-23T19:46:42.051Z,10.80
2019-03-23T19:49:10.815Z,10.70
2019-03-23T19:51:39.349Z,10.70
2019-03-23T19:54:09.161Z,10.60
2019-03-23T19:56:39.486Z,10.60
2019-03-23T19:59:07.938Z,10.60
2019-03-23T20:01:36.423Z,10.50
2019-03-23T20:04:05.129Z,10.50
2019-03-23T20:06:35.309Z,10.40
2019-03-23T20:09:05.345Z,10.40
2019-03-23T20:11:33.901Z,10.40
2019-03-23T20:14:02.722Z,10.30
2019-03-23T20:16:31.282Z,10.30
2019-03-23T20:18:59.744Z,10.30
2019-03-23T20:21:28.549Z,10.30
2019-03-23T20:23:58.653Z,10.30
2019-03-23T20:26:30.442Z,10.20
2019-03-23T20:28:59.323Z,10.20
2019-03-23T20:31:27.898Z,10.10
2019-03-23T20:33:57.255Z,10.10
2019-03-23T20:36:25.707Z,10.10
2019-03-23T20:38:54.181Z,10.10
2019-03-23T20:41:22.641Z,10.10
2019-03-23T20:43:51.180Z,10.00
2019-03-23T20:46:19.721Z,10.00
2019-03-23T20:48:48.235Z,9.90
2019-03-23T20:51:17.225Z,9.90
2019-03-23T20:53:46.077Z,9.80
2019-03-23T20:56:14.865Z,9.80
2019-03-23T20:58:43.589Z,9.70
2019-03-23T21:01:12.927Z,9.70
2019-03-23T21:03:42.418Z,9.60
2019-03-23T21:06:13.779Z,9.60
2019-03-23T21:08:42.513Z,9.50
2019-03-23T21:11:10.961Z,9.50
2019-03-23T21:13:39.425Z,9.40
2019-03-23T21:16:08.927Z,9.40
2019-03-23T21:18:38.569Z,9.40
2019-03-23T21:21:09.417Z,9.40
2019-03-23T21:23:38.992Z,9.40
2019-03-23T21:26:07.584Z,9.40
2019-03-23T21:28:36.370Z,9.40
2019-03-23T21:31:07.385Z,9.40
2019-03-23T21:33:38.940Z,9.40
2019-03-23T21:36:07.388Z,9.40
2019-03-23T21:38:35.928Z,9.30
2019-03-23T21:41:04.932Z,9.20
2019-03-23T21:43:33.669Z,9.20
2019-03-23T21:46:02.268Z,9.20
2019-03-23T21:48:30.806Z,9.20
2019-03-23T21:51:00.383Z,9.20
2019-03-23T21:53:29.226Z,9.10
2019-03-23T21:55:58.124Z,9.00
2019-03-23T21:58:26.868Z,9.00
2019-03-23T22:00:55.668Z,9.00
2019-03-23T22:03:24.499Z,9.00
2019-03-23T22:05:53.264Z,8.90
2019-03-23T22:08:21.787Z,8.90
2019-03-23T22:10:54.611Z,8.80
2019-03-23T22:13:23.414Z,8.80
2019-03-23T22:15:52.202Z,8.80
2019-03-23T22:18:20.659Z,8.80
2019-03-23T22:20:49.390Z,8.70
2019-03-23T22:23:18.272Z,8.70
2019-03-23T22:25:46.724Z,8.70
2019-03-23T22:28:15.426Z,8.60
2019-03-23T22:30:45.434Z,8.60
2019-03-23T22:33:14.248Z,8.50
2019-03-23T22:35:43.005Z,8.50
2019-03-23T22:38:15.614Z,8.40
2019-03-23T22:40:44.476Z,8.40
2019-03-23T22:43:15.031Z,8.40
2019-03-23T22:45:43.828Z,8.30
2019-03-23T22:48:12.365Z,8.30
2019-03-23T22:50:43.018Z,8.30
2019-03-23T22:53:13.868Z,8.30
2019-03-23T22:55:45.142Z,8.20
2019-03-23T22:58:13.940Z,8.20
2019-03-23T23:00:44.422Z,8.20
2019-03-23T23:03:14.796Z,8.10
2019-03-23T23:05:46.384Z,8.10
2019-03-23T23:08:15.360Z,8.00
2019-03-23T23:10:43.820Z,8.00
2019-03-23T23:13:13.141Z,8.00
2019-03-23T23:15:41.998Z,8.00
2019-03-23T23:18:10.455Z,7.90
2019-03-23T23:20:39.248Z,7.80
2019-03-23T23:23:08.073Z,7.80
2019-03-23T23:25:36.809Z,7.80
2019-03-23T23:28:05.362Z,7.70
2019-03-23T23:30:35.576Z,7.70
2019-03-23T23:33:04.066Z,7.70
2019-03-23T23:35:39.911Z,7.70
2019-03-23T23:38:09.610Z,7.60
2019-03-23T23:40:38.141Z,7.60
2019-03-23T23:43:08.551Z,7.60
2019-03-23T23:45:38.148Z,7.60
2019-03-23T23:48:06.682Z,7.60
2019-03-23T23:50:35.123Z,7.60
2019-03-23T23:53:03.954Z,7.60
2019-03-23T23:55:32.481Z,7.60
2019-03-23T23:58:01.270Z,7.60
